Center Hill Observed Data For Previous 48 Hours

Caption
Day and Hour Reservoir Elevation (behind dam)* Tailwater Elevation (below dam)* Average Hourly Discharge*
4/22/2018 1 AM CDT 635.37 484.71 8,990
4/22/2018 2 AM CDT 635.35 484.71 8,990
4/22/2018 3 AM CDT 635.32 484.72 8,990
4/22/2018 4 AM CDT 635.30 484.70 8,990
4/22/2018 5 AM CDT 635.27 484.67 8,850
4/22/2018 6 AM CDT 635.25 484.65 8,990
4/22/2018 7 AM CDT 635.23 484.73 8,990
4/22/2018 8 AM CDT 635.20 484.70 8,850
4/22/2018 9 AM CDT 635.18 484.68 8,850
4/22/2018 10 AM CDT 635.16 484.66 8,990
4/22/2018 11 AM CDT 635.14 484.74 8,990
4/22/2018 12 PM CDT 635.12 484.72 8,850
4/22/2018 1 PM CDT 635.11 484.71 8,850
4/22/2018 2 PM CDT 635.09 484.79 8,850
4/22/2018 3 PM CDT 635.07 484.77 8,990
4/22/2018 4 PM CDT 635.05 484.75 8,990
4/22/2018 5 PM CDT 635.04 484.74 8,990
4/22/2018 6 PM CDT 635.02 484.72 8,990
4/22/2018 7 PM CDT 635.00 484.70 8,990
4/22/2018 8 PM CDT 634.97 484.77 9,170
4/22/2018 9 PM CDT 634.97 484.77 9,170
4/22/2018 10 PM CDT 634.97 484.77 9,170
4/22/2018 11 PM CDT 634.97 484.77 9,170
4/23/2018 12 AM CDT 634.97 484.77 9,170
4/23/2018 1 AM CDT 634.91 484.71 9,170
4/23/2018 2 AM CDT 634.89 484.69 9,170
4/23/2018 3 AM CDT 634.88 484.68 9,260
4/23/2018 4 AM CDT 634.87 484.67 9,170
4/23/2018 5 AM CDT 634.86 484.66 8,870
4/23/2018 6 AM CDT 634.84 484.74 8,870
4/23/2018 7 AM CDT 634.80 484.70 8,800
4/23/2018 8 AM CDT 634.80 484.70 8,800
4/23/2018 9 AM CDT 634.80 484.70 9,170
4/23/2018 10 AM CDT 634.78 484.68 9,170
4/23/2018 11 AM CDT 634.77 484.77 9,000
4/23/2018 12 PM CDT 634.75 484.75 8,870
4/23/2018 1 PM CDT 634.81 484.81 9,000
4/23/2018 2 PM CDT 634.82 484.82 9,040
4/23/2018 3 PM CDT 634.81 484.81 9,000
4/23/2018 4 PM CDT 634.81 484.81 9,170
4/23/2018 5 PM CDT 634.84 484.84 9,170
4/23/2018 6 PM CDT 634.88 484.88 9,170
4/23/2018 7 PM CDT 634.88 484.88 9,260
4/23/2018 8 PM CDT 634.89 484.79 9,260
4/23/2018 9 PM CDT 634.93 484.78 9,215
4/23/2018 10 PM CDT 634.96 484.76 9,170
4/23/2018 11 PM CDT 634.97 484.77 9,000
4/24/2018 12 AM CDT 635.01 484.81 9,170
4/24/2018 1 AM CDT 635.05 484.75 8,990
4/24/2018 2 AM CDT 635.08 484.78 8,990
4/24/2018 3 AM CDT 635.12 484.72 8,850
4/24/2018 4 AM CDT 635.15 484.75 8,990
4/24/2018 5 AM CDT 635.20 484.90 8,710
4/24/2018 6 AM CDT 635.23 484.83 8,710
4/24/2018 7 AM CDT 635.33 484.83 8,710
4/24/2018 8 AM CDT 635.31 484.81 8,850
4/24/2018 9 AM CDT 635.47 484.77 8,850
4/24/2018 10 AM CDT 635.64 484.74 9,060
4/24/2018 11 AM CDT 635.73 484.83 9,060
4/24/2018 12 PM CDT 635.84 484.74 8,650
4/24/2018 1 PM CDT 635.92 484.82 8,650
4/24/2018 2 PM CDT 636.10 484.80 10,330
4/24/2018 3 PM CDT 636.16 485.96 12,330
4/24/2018 4 PM CDT 636.25 487.15 13,780
4/24/2018 5 PM CDT 636.32 487.42 13,850
4/24/2018 6 PM CDT 636.40 487.60 13,630
4/24/2018 7 PM CDT 636.44 487.74 13,970
4/24/2018 8 PM CDT 636.51 487.81 13,740

Elevations are in feet above sea level. Discharges are in cubic feet per second and are reported at the end of the hour.